sensor_id;sensor_type;location;lat;lon;timestamp;temperature;humidity
51007;DHT22;37034;47.886;-3.904;2023-01-15T00:01:01;10.50;98.00
51007;DHT22;37034;47.886;-3.904;2023-01-15T00:03:27;10.50;97.90
51007;DHT22;37034;47.886;-3.904;2023-01-15T00:05:52;10.50;97.90
51007;DHT22;37034;47.886;-3.904;2023-01-15T00:08:18;10.60;97.90
51007;DHT22;37034;47.886;-3.904;2023-01-15T00:10:44;10.50;97.70
51007;DHT22;37034;47.886;-3.904;2023-01-15T00:13:09;10.50;97.80
51007;DHT22;37034;47.886;-3.904;2023-01-15T00:15:35;10.50;97.80
51007;DHT22;37034;47.886;-3.904;2023-01-15T00:18:01;10.50;97.90
51007;DHT22;37034;47.886;-3.904;2023-01-15T00:20:28;10.60;97.70
51007;DHT22;37034;47.886;-3.904;2023-01-15T00:22:53;10.50;97.70
51007;DHT22;37034;47.886;-3.904;2023-01-15T00:25:19;10.50;97.40
51007;DHT22;37034;47.886;-3.904;2023-01-15T00:28:04;10.50;97.50
51007;DHT22;37034;47.886;-3.904;2023-01-15T00:30:29;10.50;97.50
51007;DHT22;37034;47.886;-3.904;2023-01-15T00:32:56;10.50;97.40
51007;DHT22;37034;47.886;-3.904;2023-01-15T00:35:23;10.50;97.50
51007;DHT22;37034;47.886;-3.904;2023-01-15T00:37:50;10.50;97.30
51007;DHT22;37034;47.886;-3.904;2023-01-15T00:40:18;10.50;97.40
51007;DHT22;37034;47.886;-3.904;2023-01-15T00:42:44;10.50;97.40
51007;DHT22;37034;47.886;-3.904;2023-01-15T00:45:10;10.50;97.00
51007;DHT22;37034;47.886;-3.904;2023-01-15T00:47:41;10.40;97.40
51007;DHT22;37034;47.886;-3.904;2023-01-15T00:50:09;10.50;97.20
51007;DHT22;37034;47.886;-3.904;2023-01-15T00:52:36;10.50;97.20
51007;DHT22;37034;47.886;-3.904;2023-01-15T00:55:02;10.50;97.20
51007;DHT22;37034;47.886;-3.904;2023-01-15T00:57:28;10.50;97.20
51007;DHT22;37034;47.886;-3.904;2023-01-15T00:59:53;10.50;97.10
51007;DHT22;37034;47.886;-3.904;2023-01-15T01:02:19;10.50;97.10
51007;DHT22;37034;47.886;-3.904;2023-01-15T01:04:45;10.50;97.20
51007;DHT22;37034;47.886;-3.904;2023-01-15T01:07:11;10.50;97.00
51007;DHT22;37034;47.886;-3.904;2023-01-15T01:09:37;10.40;96.80
51007;DHT22;37034;47.886;-3.904;2023-01-15T01:12:03;10.30;97.00
51007;DHT22;37034;47.886;-3.904;2023-01-15T01:14:29;10.20;96.80
51007;DHT22;37034;47.886;-3.904;2023-01-15T01:16:54;10.20;96.80
51007;DHT22;37034;47.886;-3.904;2023-01-15T01:19:22;10.20;96.70
51007;DHT22;37034;47.886;-3.904;2023-01-15T01:21:49;10.20;96.90
51007;DHT22;37034;47.886;-3.904;2023-01-15T01:24:18;10.20;96.90
51007;DHT22;37034;47.886;-3.904;2023-01-15T01:26:44;10.30;96.50
51007;DHT22;37034;47.886;-3.904;2023-01-15T01:29:18;10.30;96.80
51007;DHT22;37034;47.886;-3.904;2023-01-15T01:31:45;10.30;96.50
51007;DHT22;37034;47.886;-3.904;2023-01-15T01:34:11;10.30;96.50
51007;DHT22;37034;47.886;-3.904;2023-01-15T01:36:38;10.30;96.50
51007;DHT22;37034;47.886;-3.904;2023-01-15T01:39:05;10.40;96.40
51007;DHT22;37034;47.886;-3.904;2023-01-15T01:41:31;10.40;96.40
51007;DHT22;37034;47.886;-3.904;2023-01-15T01:44:02;10.30;96.30
51007;DHT22;37034;47.886;-3.904;2023-01-15T01:46:34;10.30;96.30
51007;DHT22;37034;47.886;-3.904;2023-01-15T01:49:18;10.30;96.40
51007;DHT22;37034;47.886;-3.904;2023-01-15T01:52:04;10.20;96.30
51007;DHT22;37034;47.886;-3.904;2023-01-15T01:54:33;10.20;96.10
51007;DHT22;37034;47.886;-3.904;2023-01-15T01:57:00;10.30;96.30
51007;DHT22;37034;47.886;-3.904;2023-01-15T01:59:26;10.30;96.20
51007;DHT22;37034;47.886;-3.904;2023-01-15T02:01:52;10.40;96.50
51007;DHT22;37034;47.886;-3.904;2023-01-15T02:04:20;10.40;96.30
51007;DHT22;37034;47.886;-3.904;2023-01-15T02:06:47;10.50;96.30
51007;DHT22;37034;47.886;-3.904;2023-01-15T02:09:12;10.50;96.30
51007;DHT22;37034;47.886;-3.904;2023-01-15T02:11:38;10.60;96.20
51007;DHT22;37034;47.886;-3.904;2023-01-15T02:14:14;10.50;96.10
51007;DHT22;37034;47.886;-3.904;2023-01-15T02:27:29;10.60;96.20
51007;DHT22;37034;47.886;-3.904;2023-01-15T02:30:00;10.50;96.10
51007;DHT22;37034;47.886;-3.904;2023-01-15T02:35:12;10.30;96.10
51007;DHT22;37034;47.886;-3.904;2023-01-15T02:37:44;10.30;96.00
51007;DHT22;37034;47.886;-3.904;2023-01-15T02:40:11;10.30;95.90
51007;DHT22;37034;47.886;-3.904;2023-01-15T02:42:39;10.20;96.00
51007;DHT22;37034;47.886;-3.904;2023-01-15T02:45:08;10.30;96.00
51007;DHT22;37034;47.886;-3.904;2023-01-15T02:47:37;10.30;95.70
51007;DHT22;37034;47.886;-3.904;2023-01-15T02:50:07;10.20;95.60
51007;DHT22;37034;47.886;-3.904;2023-01-15T02:52:40;10.20;95.70
51007;DHT22;37034;47.886;-3.904;2023-01-15T02:55:23;10.20;95.60
51007;DHT22;37034;47.886;-3.904;2023-01-15T02:57:51;10.20;95.70
51007;DHT22;37034;47.886;-3.904;2023-01-15T03:00:20;10.20;95.30
51007;DHT22;37034;47.886;-3.904;2023-01-15T03:02:53;10.20;95.10
51007;DHT22;37034;47.886;-3.904;2023-01-15T03:05:23;10.20;95.00
51007;DHT22;37034;47.886;-3.904;2023-01-15T03:07:59;10.20;94.90
51007;DHT22;37034;47.886;-3.904;2023-01-15T03:11:16;10.10;94.90
51007;DHT22;37034;47.886;-3.904;2023-01-15T03:13:30;10.10;95.10
51007;DHT22;37034;47.886;-3.904;2023-01-15T03:16:08;10.10;95.00
51007;DHT22;37034;47.886;-3.904;2023-01-15T03:19:03;10.00;94.90
51007;DHT22;37034;47.886;-3.904;2023-01-15T03:21:43;10.00;95.10
51007;DHT22;37034;47.886;-3.904;2023-01-15T03:24:12;10.10;95.10
51007;DHT22;37034;47.886;-3.904;2023-01-15T03:26:39;10.00;95.40
51007;DHT22;37034;47.886;-3.904;2023-01-15T03:29:07;10.10;95.40
51007;DHT22;37034;47.886;-3.904;2023-01-15T03:31:34;10.10;95.50
51007;DHT22;37034;47.886;-3.904;2023-01-15T03:34:01;10.10;95.50
51007;DHT22;37034;47.886;-3.904;2023-01-15T03:36:27;10.20;95.40
51007;DHT22;37034;47.886;-3.904;2023-01-15T03:38:52;10.20;95.20
51007;DHT22;37034;47.886;-3.904;2023-01-15T03:41:26;10.20;95.10
51007;DHT22;37034;47.886;-3.904;2023-01-15T03:43:57;10.20;95.00
51007;DHT22;37034;47.886;-3.904;2023-01-15T03:49:06;10.30;94.90
51007;DHT22;37034;47.886;-3.904;2023-01-15T03:54:04;10.30;94.80
51007;DHT22;37034;47.886;-3.904;2023-01-15T03:56:31;10.30;94.50
51007;DHT22;37034;47.886;-3.904;2023-01-15T04:01:25;10.30;94.80
51007;DHT22;37034;47.886;-3.904;2023-01-15T04:03:51;10.30;94.70
51007;DHT22;37034;47.886;-3.904;2023-01-15T04:06:17;10.30;94.80
51007;DHT22;37034;47.886;-3.904;2023-01-15T04:08:43;10.40;94.90
51007;DHT22;37034;47.886;-3.904;2023-01-15T04:11:09;10.40;94.90
51007;DHT22;37034;47.886;-3.904;2023-01-15T04:13:35;10.40;94.90
51007;DHT22;37034;47.886;-3.904;2023-01-15T04:16:01;10.40;95.00
51007;DHT22;37034;47.886;-3.904;2023-01-15T04:18:26;10.50;95.10
51007;DHT22;37034;47.886;-3.904;2023-01-15T04:20:52;10.40;95.20
51007;DHT22;37034;47.886;-3.904;2023-01-15T04:23:20;10.30;95.20
51007;DHT22;37034;47.886;-3.904;2023-01-15T04:25:45;10.40;95.30
51007;DHT22;37034;47.886;-3.904;2023-01-15T04:28:11;10.40;95.20
51007;DHT22;37034;47.886;-3.904;2023-01-15T04:30:37;10.40;95.20
51007;DHT22;37034;47.886;-3.904;2023-01-15T04:33:03;10.50;95.20
51007;DHT22;37034;47.886;-3.904;2023-01-15T04:35:29;10.50;95.30
51007;DHT22;37034;47.886;-3.904;2023-01-15T04:37:55;10.50;95.10
51007;DHT22;37034;47.886;-3.904;2023-01-15T04:40:20;10.50;95.00
51007;DHT22;37034;47.886;-3.904;2023-01-15T04:43:04;10.40;95.10
51007;DHT22;37034;47.886;-3.904;2023-01-15T04:45:48;10.40;95.10
51007;DHT22;37034;47.886;-3.904;2023-01-15T04:48:14;10.40;95.10
51007;DHT22;37034;47.886;-3.904;2023-01-15T04:50:40;10.40;95.00
51007;DHT22;37034;47.886;-3.904;2023-01-15T04:53:05;10.40;94.90
51007;DHT22;37034;47.886;-3.904;2023-01-15T04:55:31;10.40;95.00
51007;DHT22;37034;47.886;-3.904;2023-01-15T04:57:56;10.40;94.80
51007;DHT22;37034;47.886;-3.904;2023-01-15T05:00:22;10.50;95.10
51007;DHT22;37034;47.886;-3.904;2023-01-15T05:02:48;10.40;95.00
51007;DHT22;37034;47.886;-3.904;2023-01-15T05:05:13;10.30;95.10
51007;DHT22;37034;47.886;-3.904;2023-01-15T05:07:39;10.40;95.40
51007;DHT22;37034;47.886;-3.904;2023-01-15T05:10:04;10.40;95.40
51007;DHT22;37034;47.886;-3.904;2023-01-15T05:12:30;10.40;95.20
51007;DHT22;37034;47.886;-3.904;2023-01-15T05:14:55;10.20;95.10
51007;DHT22;37034;47.886;-3.904;2023-01-15T05:17:21;10.30;95.50
51007;DHT22;37034;47.886;-3.904;2023-01-15T05:19:47;10.40;95.50
51007;DHT22;37034;47.886;-3.904;2023-01-15T05:22:12;10.30;95.30
51007;DHT22;37034;47.886;-3.904;2023-01-15T05:24:38;10.30;95.30
51007;DHT22;37034;47.886;-3.904;2023-01-15T05:27:03;10.40;95.40
51007;DHT22;37034;47.886;-3.904;2023-01-15T05:29:30;10.40;95.40
51007;DHT22;37034;47.886;-3.904;2023-01-15T05:31:55;10.40;95.30
51007;DHT22;37034;47.886;-3.904;2023-01-15T05:34:21;10.40;95.50
51007;DHT22;37034;47.886;-3.904;2023-01-15T05:36:46;10.40;95.30
51007;DHT22;37034;47.886;-3.904;2023-01-15T05:39:12;10.50;95.10
51007;DHT22;37034;47.886;-3.904;2023-01-15T05:41:37;10.50;95.00
51007;DHT22;37034;47.886;-3.904;2023-01-15T05:46:41;10.50;94.90
51007;DHT22;37034;47.886;-3.904;2023-01-15T05:49:08;10.50;94.60
51007;DHT22;37034;47.886;-3.904;2023-01-15T05:51:34;10.60;94.50
51007;DHT22;37034;47.886;-3.904;2023-01-15T05:54:00;10.50;94.40
51007;DHT22;37034;47.886;-3.904;2023-01-15T05:56:26;10.40;94.40
51007;DHT22;37034;47.886;-3.904;2023-01-15T05:58:51;10.50;94.50
51007;DHT22;37034;47.886;-3.904;2023-01-15T06:01:17;10.70;94.50
51007;DHT22;37034;47.886;-3.904;2023-01-15T06:03:43;10.50;94.30
51007;DHT22;37034;47.886;-3.904;2023-01-15T06:06:12;10.50;94.40
51007;DHT22;37034;47.886;-3.904;2023-01-15T06:08:37;10.50;95.20
51007;DHT22;37034;47.886;-3.904;2023-01-15T06:11:03;10.30;95.40
51007;DHT22;37034;47.886;-3.904;2023-01-15T06:13:31;10.30;95.30
51007;DHT22;37034;47.886;-3.904;2023-01-15T06:15:57;10.30;95.00
51007;DHT22;37034;47.886;-3.904;2023-01-15T06:18:23;10.30;94.60
51007;DHT22;37034;47.886;-3.904;2023-01-15T06:20:49;10.40;94.30
51007;DHT22;37034;47.886;-3.904;2023-01-15T06:23:15;10.30;94.40
51007;DHT22;37034;47.886;-3.904;2023-01-15T06:25:41;10.30;94.10
51007;DHT22;37034;47.886;-3.904;2023-01-15T06:28:07;10.10;94.00
51007;DHT22;37034;47.886;-3.904;2023-01-15T06:30:33;10.20;94.40
51007;DHT22;37034;47.886;-3.904;2023-01-15T06:32:58;10.20;94.30
51007;DHT22;37034;47.886;-3.904;2023-01-15T06:35:24;10.20;94.40
51007;DHT22;37034;47.886;-3.904;2023-01-15T06:37:50;10.20;94.50
51007;DHT22;37034;47.886;-3.904;2023-01-15T06:40:15;10.20;94.50
51007;DHT22;37034;47.886;-3.904;2023-01-15T06:42:41;10.30;94.70
51007;DHT22;37034;47.886;-3.904;2023-01-15T06:45:25;10.40;94.70
51007;DHT22;37034;47.886;-3.904;2023-01-15T06:48:09;10.30;94.90
51007;DHT22;37034;47.886;-3.904;2023-01-15T06:50:35;10.40;94.80
51007;DHT22;37034;47.886;-3.904;2023-01-15T06:53:00;10.30;94.90
51007;DHT22;37034;47.886;-3.904;2023-01-15T06:55:26;10.30;94.80
51007;DHT22;37034;47.886;-3.904;2023-01-15T06:57:51;10.20;94.60
51007;DHT22;37034;47.886;-3.904;2023-01-15T07:00:17;10.30;94.90
51007;DHT22;37034;47.886;-3.904;2023-01-15T07:02:43;10.30;94.90
51007;DHT22;37034;47.886;-3.904;2023-01-15T07:05:08;10.40;94.90
51007;DHT22;37034;47.886;-3.904;2023-01-15T07:07:34;10.40;94.90
51007;DHT22;37034;47.886;-3.904;2023-01-15T07:10:00;10.40;95.00
51007;DHT22;37034;47.886;-3.904;2023-01-15T07:12:26;10.40;95.00
51007;DHT22;37034;47.886;-3.904;2023-01-15T07:14:51;10.50;95.00
51007;DHT22;37034;47.886;-3.904;2023-01-15T07:17:17;10.50;95.00
51007;DHT22;37034;47.886;-3.904;2023-01-15T07:19:43;10.60;95.00
51007;DHT22;37034;47.886;-3.904;2023-01-15T07:22:09;10.60;95.10
51007;DHT22;37034;47.886;-3.904;2023-01-15T07:24:35;10.60;95.00
51007;DHT22;37034;47.886;-3.904;2023-01-15T07:27:00;10.60;95.00
51007;DHT22;37034;47.886;-3.904;2023-01-15T07:29:26;10.50;95.10
51007;DHT22;37034;47.886;-3.904;2023-01-15T07:31:52;10.50;95.20
51007;DHT22;37034;47.886;-3.904;2023-01-15T07:34:18;10.60;95.20
51007;DHT22;37034;47.886;-3.904;2023-01-15T07:36:44;10.60;95.10
51007;DHT22;37034;47.886;-3.904;2023-01-15T07:39:10;10.50;95.10
51007;DHT22;37034;47.886;-3.904;2023-01-15T07:41:35;10.60;95.30
51007;DHT22;37034;47.886;-3.904;2023-01-15T07:44:20;10.60;95.40
51007;DHT22;37034;47.886;-3.904;2023-01-15T07:47:14;10.60;95.10
51007;DHT22;37034;47.886;-3.904;2023-01-15T07:49:59;10.50;95.50
51007;DHT22;37034;47.886;-3.904;2023-01-15T07:52:24;10.70;95.40
51007;DHT22;37034;47.886;-3.904;2023-01-15T07:54:50;10.80;95.20
51007;DHT22;37034;47.886;-3.904;2023-01-15T07:57:17;10.80;94.90
51007;DHT22;37034;47.886;-3.904;2023-01-15T07:59:43;10.80;95.10
51007;DHT22;37034;47.886;-3.904;2023-01-15T08:02:08;10.80;95.10
51007;DHT22;37034;47.886;-3.904;2023-01-15T08:04:34;10.70;95.10
51007;DHT22;37034;47.886;-3.904;2023-01-15T08:07:03;10.70;95.10
51007;DHT22;37034;47.886;-3.904;2023-01-15T08:09:28;10.60;94.70
51007;DHT22;37034;47.886;-3.904;2023-01-15T08:11:54;10.60;94.80
51007;DHT22;37034;47.886;-3.904;2023-01-15T08:14:39;10.70;94.90
51007;DHT22;37034;47.886;-3.904;2023-01-15T08:17:23;10.70;94.90
51007;DHT22;37034;47.886;-3.904;2023-01-15T08:19:48;10.70;95.00
51007;DHT22;37034;47.886;-3.904;2023-01-15T08:22:14;10.70;95.00
51007;DHT22;37034;47.886;-3.904;2023-01-15T08:24:39;10.70;95.00
51007;DHT22;37034;47.886;-3.904;2023-01-15T08:27:05;10.70;95.00
51007;DHT22;37034;47.886;-3.904;2023-01-15T08:29:31;10.70;95.00
51007;DHT22;37034;47.886;-3.904;2023-01-15T08:31:56;10.80;95.00
51007;DHT22;37034;47.886;-3.904;2023-01-15T08:34:22;10.70;94.90
51007;DHT22;37034;47.886;-3.904;2023-01-15T08:36:48;10.80;94.90
51007;DHT22;37034;47.886;-3.904;2023-01-15T08:39:14;10.80;95.40
51007;DHT22;37034;47.886;-3.904;2023-01-15T08:41:39;10.60;95.90
51007;DHT22;37034;47.886;-3.904;2023-01-15T08:44:05;10.40;96.00
51007;DHT22;37034;47.886;-3.904;2023-01-15T08:46:31;10.30;96.10
51007;DHT22;37034;47.886;-3.904;2023-01-15T08:48:56;10.30;95.90
51007;DHT22;37034;47.886;-3.904;2023-01-15T08:51:22;10.30;95.80
51007;DHT22;37034;47.886;-3.904;2023-01-15T08:53:47;10.40;95.30
51007;DHT22;37034;47.886;-3.904;2023-01-15T08:56:16;10.30;95.30
51007;DHT22;37034;47.886;-3.904;2023-01-15T08:58:43;10.20;95.10
51007;DHT22;37034;47.886;-3.904;2023-01-15T09:01:09;10.20;95.40
51007;DHT22;37034;47.886;-3.904;2023-01-15T09:03:36;10.20;95.50
51007;DHT22;37034;47.886;-3.904;2023-01-15T09:06:02;10.30;95.20
51007;DHT22;37034;47.886;-3.904;2023-01-15T09:08:28;10.30;95.80
51007;DHT22;37034;47.886;-3.904;2023-01-15T09:11:01;10.50;95.60
51007;DHT22;37034;47.886;-3.904;2023-01-15T09:13:27;10.60;95.50
51007;DHT22;37034;47.886;-3.904;2023-01-15T09:15:53;10.80;95.60
51007;DHT22;37034;47.886;-3.904;2023-01-15T09:18:19;10.70;95.60
51007;DHT22;37034;47.886;-3.904;2023-01-15T09:20:45;10.70;95.60
51007;DHT22;37034;47.886;-3.904;2023-01-15T09:23:10;10.80;95.60
51007;DHT22;37034;47.886;-3.904;2023-01-15T09:25:36;10.90;95.50
51007;DHT22;37034;47.886;-3.904;2023-01-15T09:28:01;11.00;95.50
51007;DHT22;37034;47.886;-3.904;2023-01-15T09:30:27;11.00;95.50
51007;DHT22;37034;47.886;-3.904;2023-01-15T09:32:53;11.10;95.50
51007;DHT22;37034;47.886;-3.904;2023-01-15T09:35:19;11.10;95.60
51007;DHT22;37034;47.886;-3.904;2023-01-15T09:37:53;11.30;95.70
51007;DHT22;37034;47.886;-3.904;2023-01-15T09:40:28;11.40;95.50
51007;DHT22;37034;47.886;-3.904;2023-01-15T09:42:57;11.60;95.70
51007;DHT22;37034;47.886;-3.904;2023-01-15T09:45:29;11.80;95.50
51007;DHT22;37034;47.886;-3.904;2023-01-15T09:48:03;11.80;95.10
51007;DHT22;37034;47.886;-3.904;2023-01-15T09:53:02;11.90;95.40
51007;DHT22;37034;47.886;-3.904;2023-01-15T09:55:30;11.90;95.50
51007;DHT22;37034;47.886;-3.904;2023-01-15T09:57:57;11.50;95.80
51007;DHT22;37034;47.886;-3.904;2023-01-15T10:00:24;11.40;95.90
51007;DHT22;37034;47.886;-3.904;2023-01-15T10:05:40;11.30;95.50
51007;DHT22;37034;47.886;-3.904;2023-01-15T10:08:19;11.20;95.50
51007;DHT22;37034;47.886;-3.904;2023-01-15T10:10:46;11.20;95.60
51007;DHT22;37034;47.886;-3.904;2023-01-15T10:13:30;11.20;95.50
51007;DHT22;37034;47.886;-3.904;2023-01-15T10:15:58;11.20;95.80
51007;DHT22;37034;47.886;-3.904;2023-01-15T10:18:24;11.20;96.00
51007;DHT22;37034;47.886;-3.904;2023-01-15T10:25:50;10.80;96.30
51007;DHT22;37034;47.886;-3.904;2023-01-15T10:28:22;10.80;96.60
51007;DHT22;37034;47.886;-3.904;2023-01-15T10:30:50;10.70;96.30
51007;DHT22;37034;47.886;-3.904;2023-01-15T10:36:09;10.70;96.40
51007;DHT22;37034;47.886;-3.904;2023-01-15T10:38:39;10.60;96.40
51007;DHT22;37034;47.886;-3.904;2023-01-15T10:46:18;10.60;96.60
51007;DHT22;37034;47.886;-3.904;2023-01-15T10:48:54;10.80;96.50
51007;DHT22;37034;47.886;-3.904;2023-01-15T10:56:40;11.00;96.90
51007;DHT22;37034;47.886;-3.904;2023-01-15T11:01:32;10.40;96.70
51007;DHT22;37034;47.886;-3.904;2023-01-15T11:03:58;10.50;96.30
51007;DHT22;37034;47.886;-3.904;2023-01-15T11:06:24;10.40;96.00
51007;DHT22;37034;47.886;-3.904;2023-01-15T11:08:53;10.40;96.20
51007;DHT22;37034;47.886;-3.904;2023-01-15T11:11:21;10.60;96.30
51007;DHT22;37034;47.886;-3.904;2023-01-15T11:14:07;10.70;96.20
51007;DHT22;37034;47.886;-3.904;2023-01-15T11:16:51;10.70;96.20
51007;DHT22;37034;47.886;-3.904;2023-01-15T11:19:36;10.90;96.10
51007;DHT22;37034;47.886;-3.904;2023-01-15T11:22:11;11.10;96.00
51007;DHT22;37034;47.886;-3.904;2023-01-15T11:24:43;11.30;95.80
51007;DHT22;37034;47.886;-3.904;2023-01-15T11:27:12;11.10;95.50
51007;DHT22;37034;47.886;-3.904;2023-01-15T11:29:38;11.00;96.20
51007;DHT22;37034;47.886;-3.904;2023-01-15T11:32:15;11.00;96.30
51007;DHT22;37034;47.886;-3.904;2023-01-15T11:34:50;11.10;96.30
51007;DHT22;37034;47.886;-3.904;2023-01-15T11:37:16;11.10;96.50
51007;DHT22;37034;47.886;-3.904;2023-01-15T11:39:50;11.20;96.70
51007;DHT22;37034;47.886;-3.904;2023-01-15T11:42:16;11.40;96.60
51007;DHT22;37034;47.886;-3.904;2023-01-15T11:45:00;11.50;96.70
51007;DHT22;37034;47.886;-3.904;2023-01-15T11:47:51;11.60;96.60
51007;DHT22;37034;47.886;-3.904;2023-01-15T11:50:46;11.70;96.30
51007;DHT22;37034;47.886;-3.904;2023-01-15T11:53:14;11.80;96.30
51007;DHT22;37034;47.886;-3.904;2023-01-15T11:55:49;11.90;96.60
51007;DHT22;37034;47.886;-3.904;2023-01-15T11:58:15;11.90;96.20
51007;DHT22;37034;47.886;-3.904;2023-01-15T12:00:41;11.90;96.10
51007;DHT22;37034;47.886;-3.904;2023-01-15T12:03:13;11.90;95.90
51007;DHT22;37034;47.886;-3.904;2023-01-15T12:05:43;12.00;96.40
51007;DHT22;37034;47.886;-3.904;2023-01-15T12:08:52;12.10;96.50
51007;DHT22;37034;47.886;-3.904;2023-01-15T12:18:56;12.20;96.70
51007;DHT22;37034;47.886;-3.904;2023-01-15T12:26:43;12.20;96.80
51007;DHT22;37034;47.886;-3.904;2023-01-15T12:29:25;12.20;96.30
51007;DHT22;37034;47.886;-3.904;2023-01-15T12:31:56;12.30;96.30
51007;DHT22;37034;47.886;-3.904;2023-01-15T12:37:16;12.30;96.50
51007;DHT22;37034;47.886;-3.904;2023-01-15T12:39:48;12.40;96.70
51007;DHT22;37034;47.886;-3.904;2023-01-15T12:42:17;12.40;96.30
51007;DHT22;37034;47.886;-3.904;2023-01-15T12:45:06;12.40;96.30
51007;DHT22;37034;47.886;-3.904;2023-01-15T12:47:35;12.60;96.40
51007;DHT22;37034;47.886;-3.904;2023-01-15T12:52:49;12.90;96.20
51007;DHT22;37034;47.886;-3.904;2023-01-15T12:55:21;13.10;95.80
51007;DHT22;37034;47.886;-3.904;2023-01-15T12:57:52;13.10;95.50
51007;DHT22;37034;47.886;-3.904;2023-01-15T13:00:23;13.00;95.20
51007;DHT22;37034;47.886;-3.904;2023-01-15T13:05:17;12.60;94.80
51007;DHT22;37034;47.886;-3.904;2023-01-15T13:08:05;12.60;94.40
51007;DHT22;37034;47.886;-3.904;2023-01-15T13:10:29;12.50;94.40
51007;DHT22;37034;47.886;-3.904;2023-01-15T13:13:01;12.40;94.40
51007;DHT22;37034;47.886;-3.904;2023-01-15T13:15:34;12.40;94.50
51007;DHT22;37034;47.886;-3.904;2023-01-15T13:18:06;12.20;94.20
51007;DHT22;37034;47.886;-3.904;2023-01-15T13:38:36;12.00;94.80
51007;DHT22;37034;47.886;-3.904;2023-01-15T13:41:04;12.00;95.10
51007;DHT22;37034;47.886;-3.904;2023-01-15T13:43:38;11.90;94.60
51007;DHT22;37034;47.886;-3.904;2023-01-15T13:46:06;11.90;94.30
51007;DHT22;37034;47.886;-3.904;2023-01-15T13:48:39;11.90;94.70
51007;DHT22;37034;47.886;-3.904;2023-01-15T13:51:05;11.90;94.70
51007;DHT22;37034;47.886;-3.904;2023-01-15T13:55:58;12.00;94.70
51007;DHT22;37034;47.886;-3.904;2023-01-15T13:58:28;12.00;94.70
51007;DHT22;37034;47.886;-3.904;2023-01-15T14:01:01;12.00;94.70
51007;DHT22;37034;47.886;-3.904;2023-01-15T14:03:28;12.00;94.80
51007;DHT22;37034;47.886;-3.904;2023-01-15T14:05:55;12.00;94.80
51007;DHT22;37034;47.886;-3.904;2023-01-15T14:08:38;12.10;95.00
51007;DHT22;37034;47.886;-3.904;2023-01-15T14:11:03;12.10;95.40
51007;DHT22;37034;47.886;-3.904;2023-01-15T14:26:43;12.10;95.50
51007;DHT22;37034;47.886;-3.904;2023-01-15T14:31:50;12.10;95.30
51007;DHT22;37034;47.886;-3.904;2023-01-15T14:36:49;12.20;95.40
51007;DHT22;37034;47.886;-3.904;2023-01-15T14:41:53;12.20;95.20
51007;DHT22;37034;47.886;-3.904;2023-01-15T14:44:38;12.30;95.30
51007;DHT22;37034;47.886;-3.904;2023-01-15T14:47:10;12.20;95.20
51007;DHT22;37034;47.886;-3.904;2023-01-15T14:49:44;12.00;95.40
51007;DHT22;37034;47.886;-3.904;2023-01-15T14:52:19;11.90;95.80
51007;DHT22;37034;47.886;-3.904;2023-01-15T14:54:45;11.90;95.80
51007;DHT22;37034;47.886;-3.904;2023-01-15T14:57:11;12.00;96.00
51007;DHT22;37034;47.886;-3.904;2023-01-15T14:59:40;12.00;95.90
51007;DHT22;37034;47.886;-3.904;2023-01-15T15:02:33;12.00;96.00
51007;DHT22;37034;47.886;-3.904;2023-01-15T15:04:55;12.10;95.80
51007;DHT22;37034;47.886;-3.904;2023-01-15T15:07:22;12.10;95.70
51007;DHT22;37034;47.886;-3.904;2023-01-15T15:09:58;12.20;95.80
51007;DHT22;37034;47.886;-3.904;2023-01-15T15:15:22;12.20;95.80
51007;DHT22;37034;47.886;-3.904;2023-01-15T15:22:50;12.10;95.60
51007;DHT22;37034;47.886;-3.904;2023-01-15T15:25:21;11.90;95.70
51007;DHT22;37034;47.886;-3.904;2023-01-15T15:27:47;11.80;96.10
51007;DHT22;37034;47.886;-3.904;2023-01-15T15:30:13;11.70;96.30
51007;DHT22;37034;47.886;-3.904;2023-01-15T15:32:44;11.70;96.40
51007;DHT22;37034;47.886;-3.904;2023-01-15T15:35:19;11.80;96.40
51007;DHT22;37034;47.886;-3.904;2023-01-15T15:37:46;11.80;96.20
51007;DHT22;37034;47.886;-3.904;2023-01-15T15:40:16;11.80;96.20
51007;DHT22;37034;47.886;-3.904;2023-01-15T15:43:00;11.90;96.20
51007;DHT22;37034;47.886;-3.904;2023-01-15T15:45:52;11.90;96.20
51007;DHT22;37034;47.886;-3.904;2023-01-15T15:48:37;11.90;96.20
51007;DHT22;37034;47.886;-3.904;2023-01-15T15:53:50;12.00;96.30
51007;DHT22;37034;47.886;-3.904;2023-01-15T15:56:15;12.10;96.20
51007;DHT22;37034;47.886;-3.904;2023-01-15T15:58:41;12.10;96.20
51007;DHT22;37034;47.886;-3.904;2023-01-15T16:01:10;12.10;96.20
51007;DHT22;37034;47.886;-3.904;2023-01-15T16:03:43;12.10;96.30
51007;DHT22;37034;47.886;-3.904;2023-01-15T16:06:17;12.10;96.40
51007;DHT22;37034;47.886;-3.904;2023-01-15T16:08:50;12.10;96.30
51007;DHT22;37034;47.886;-3.904;2023-01-15T16:11:15;12.10;96.50
51007;DHT22;37034;47.886;-3.904;2023-01-15T16:13:45;12.10;96.50
51007;DHT22;37034;47.886;-3.904;2023-01-15T16:16:12;12.10;96.60
51007;DHT22;37034;47.886;-3.904;2023-01-15T16:18:41;12.10;96.50
51007;DHT22;37034;47.886;-3.904;2023-01-15T16:21:22;12.00;96.70
51007;DHT22;37034;47.886;-3.904;2023-01-15T16:23:55;11.90;96.70
51007;DHT22;37034;47.886;-3.904;2023-01-15T16:26:21;11.90;96.70
51007;DHT22;37034;47.886;-3.904;2023-01-15T16:28:58;11.70;96.60
51007;DHT22;37034;47.886;-3.904;2023-01-15T16:31:24;11.60;96.70
51007;DHT22;37034;47.886;-3.904;2023-01-15T16:33:54;11.60;96.80
51007;DHT22;37034;47.886;-3.904;2023-01-15T16:36:20;11.70;96.90
51007;DHT22;37034;47.886;-3.904;2023-01-15T16:38:47;11.70;96.80
51007;DHT22;37034;47.886;-3.904;2023-01-15T16:41:26;11.60;96.70
51007;DHT22;37034;47.886;-3.904;2023-01-15T16:43:57;11.60;97.20
51007;DHT22;37034;47.886;-3.904;2023-01-15T16:46:25;11.60;97.10
51007;DHT22;37034;47.886;-3.904;2023-01-15T16:51:36;11.60;97.10
51007;DHT22;37034;47.886;-3.904;2023-01-15T16:54:48;11.60;97.10
51007;DHT22;37034;47.886;-3.904;2023-01-15T16:57:01;11.70;96.90
51007;DHT22;37034;47.886;-3.904;2023-01-15T17:01:55;11.80;97.20
51007;DHT22;37034;47.886;-3.904;2023-01-15T17:04:29;11.80;97.10
51007;DHT22;37034;47.886;-3.904;2023-01-15T17:09:20;11.80;97.00
51007;DHT22;37034;47.886;-3.904;2023-01-15T17:11:48;11.70;97.00
51007;DHT22;37034;47.886;-3.904;2023-01-15T17:16:46;11.60;97.40
51007;DHT22;37034;47.886;-3.904;2023-01-15T17:19:11;11.60;97.70
51007;DHT22;37034;47.886;-3.904;2023-01-15T17:21:37;11.60;97.60
51007;DHT22;37034;47.886;-3.904;2023-01-15T17:24:06;11.60;97.60
51007;DHT22;37034;47.886;-3.904;2023-01-15T17:26:33;11.50;97.60
51007;DHT22;37034;47.886;-3.904;2023-01-15T17:28:58;11.50;97.80
51007;DHT22;37034;47.886;-3.904;2023-01-15T17:31:25;11.40;97.70
51007;DHT22;37034;47.886;-3.904;2023-01-15T17:33:52;11.50;97.80
51007;DHT22;37034;47.886;-3.904;2023-01-15T17:36:18;11.50;98.10
51007;DHT22;37034;47.886;-3.904;2023-01-15T17:38:44;11.60;98.10
51007;DHT22;37034;47.886;-3.904;2023-01-15T17:41:12;11.60;97.90